Time;durP1;ratioP1;P1;durP2;ratioP2;P2;SDS_P1;SDS_P2;PMS_P1;PMS_P2;Temp;Humidity;BMP_temperature;BMP_pressure;BME280_temperature;BME280_humidity;BME280_pressure;Samples;Min_cycle;Max_cycle;Signal;HPM_P1;HPM_P2
2022/12/28 00:00:51;;;;;;;;;;;;;;;6.10;100.00;100933.53;5075371;28;20037;-70
2022/12/28 00:03:17;;;;;;;;;;;;;;;6.10;100.00;100935.28;5076717;28;20464;-70
2022/12/28 00:05:42;;;;;;;;;;;;;;;6.05;100.00;100944.94;5087424;28;20069;-70
2022/12/28 00:08:07;;;;;;;;;;;;;;;6.05;100.00;100939.66;5091610;28;19933;-67
2022/12/28 00:10:33;;;;;;;;;;;;;;;6.08;100.00;100926.50;5092827;28;20319;-70
2022/12/28 00:12:58;;;;;;;;;;;;;;;6.02;100.00;100923.84;5075319;28;19934;-70
2022/12/28 00:15:23;;;;;;;;;;;;;;;6.03;100.00;100917.69;5074450;28;20311;-70
2022/12/28 00:17:48;;;;;;;;;;;;;;;6.08;100.00;100919.44;5074581;28;19986;-70
2022/12/28 00:20:14;;;;;;;;;;;;;;;6.12;100.00;100917.66;5058529;28;20387;-70
2022/12/28 00:22:39;;;;;;;;;;;;;;;6.11;100.00;100910.63;5074589;28;19929;-70
2022/12/28 00:25:04;;;;;;;;;;;;;;;6.10;100.00;100901.81;5089539;28;20417;-70
2022/12/28 00:27:30;;;;;;;;;;;;;;;6.09;100.00;100915.03;5076820;28;19956;-70
2022/12/28 00:29:55;;;;;;;;;;;;;;;6.11;100.00;100914.13;5074150;28;20097;-70
2022/12/28 00:32:20;;;;;;;;;;;;;;;6.11;100.00;100911.50;5074391;28;20311;-70
2022/12/28 00:34:46;;;;;;;;;;;;;;;6.11;100.00;100900.06;5075627;28;19971;-70
2022/12/28 00:37:11;;;;;;;;;;;;;;;6.10;100.00;100898.28;5074856;28;19937;-70
2022/12/28 00:39:36;;;;;;;;;;;;;;;6.13;100.00;100898.28;5079039;28;20042;-70
2022/12/28 00:42:01;;;;;;;;;;;;;;;6.14;100.00;100892.16;5080371;28;19940;-70
2022/12/28 00:44:27;;;;;;;;;;;;;;;6.11;100.00;100884.22;5090942;28;20024;-71
2022/12/28 00:46:52;;;;;;;;;;;;;;;6.12;100.00;100886.88;5094108;28;19958;-70
2022/12/28 00:49:17;;;;;;;;;;;;;;;6.13;100.00;100888.63;5094235;28;19995;-69
2022/12/28 00:51:43;;;;;;;;;;;;;;;6.09;100.00;100883.34;5089518;28;19940;-70
2022/12/28 00:54:08;;;;;;;;;;;;;;;6.11;100.00;100876.31;5093993;28;19953;-70
2022/12/28 00:56:33;;;;;;;;;;;;;;;6.17;100.00;100878.94;5084385;28;19940;-70
2022/12/28 00:58:58;;;;;;;;;;;;;;;6.20;100.00;100861.31;5084905;28;20028;-70
2022/12/28 01:01:24;;;;;;;;;;;;;;;6.24;100.00;100855.13;5091681;28;19927;-70
2022/12/28 01:03:50;;;;;;;;;;;;;;;6.28;100.00;100856.00;5084371;28;19997;-70
2022/12/28 01:06:17;;;;;;;;;;;;;;;6.25;100.00;100853.38;5093850;28;19931;-70
2022/12/28 01:08:42;;;;;;;;;;;;;;;6.27;100.00;100847.22;5090102;28;20502;-70
2022/12/28 01:11:09;;;;;;;;;;;;;;;6.29;100.00;100847.22;5093455;28;20048;-70
2022/12/28 01:13:35;;;;;;;;;;;;;;;6.32;100.00;100845.47;5090952;28;20020;-70
2022/12/28 01:16:07;;;;;;;;;;;;;;;6.35;100.00;100836.63;5074238;28;19937;-70
2022/12/28 01:18:33;;;;;;;;;;;;;;;6.36;100.00;100844.53;5073573;28;19967;-70
2022/12/28 01:20:58;;;;;;;;;;;;;;;6.38;100.00;100837.50;5074956;28;20660;-70
2022/12/28 01:23:23;;;;;;;;;;;;;;;6.44;100.00;100841.91;5073381;28;19940;-70
2022/12/28 01:25:48;;;;;;;;;;;;;;;6.41;100.00;100836.59;5077627;28;19949;-70
2022/12/28 01:28:14;;;;;;;;;;;;;;;6.43;100.00;100830.44;5093737;28;19935;-70
2022/12/28 01:30:39;;;;;;;;;;;;;;;6.54;100.00;100827.75;5092978;28;19974;-70
2022/12/28 01:33:04;;;;;;;;;;;;;;;6.56;100.00;100824.22;5078927;28;19947;-70
2022/12/28 01:35:29;;;;;;;;;;;;;;;6.56;100.00;100816.31;5076096;28;19958;-71
2022/12/28 01:37:55;;;;;;;;;;;;;;;6.66;100.00;100822.44;5074344;28;20742;-70
2022/12/28 01:40:20;;;;;;;;;;;;;;;6.72;100.00;100812.72;5082588;28;20136;-74
2022/12/28 01:42:46;;;;;;;;;;;;;;;6.71;100.00;100815.34;5091720;28;20063;-74
2022/12/28 01:45:20;;;;;;;;;;;;;;;6.75;100.00;100821.50;5091712;28;20726;-73
2022/12/28 01:47:46;;;;;;;;;;;;;;;6.80;100.00;100812.69;5074885;28;19933;-73
2022/12/28 01:50:12;;;;;;;;;;;;;;;6.81;100.00;100813.53;5072270;28;20172;-73
2022/12/28 01:52:40;;;;;;;;;;;;;;;6.90;100.00;100816.16;5054909;28;20052;-74
2022/12/28 01:55:15;;;;;;;;;;;;;;;6.92;100.00;100812.59;5080361;28;20052;-74
2022/12/28 01:58:00;;;;;;;;;;;;;;;6.99;100.00;100805.50;5092752;28;19936;-73
2022/12/28 02:00:38;;;;;;;;;;;;;;;7.04;100.00;100807.25;5092875;28;19938;-74
2022/12/28 02:03:06;;;;;;;;;;;;;;;7.04;99.60;100796.69;5081793;28;19982;-73
2022/12/28 02:05:33;;;;;;;;;;;;;;;7.05;99.19;100781.69;5092796;28;20437;-73
2022/12/28 02:08:11;;;;;;;;;;;;;;;7.08;98.63;100774.63;5088573;28;19940;-74
2022/12/28 02:10:36;;;;;;;;;;;;;;;7.15;98.52;100776.31;5092623;28;19929;-72
2022/12/28 02:13:03;;;;;;;;;;;;;;;7.17;98.49;100771.00;5092721;28;19939;-73
2022/12/28 02:15:28;;;;;;;;;;;;;;;7.17;97.94;100763.06;5092751;28;20308;-72
2022/12/28 02:17:53;;;;;;;;;;;;;;;7.20;97.06;100761.28;5065431;28;19943;-69
2022/12/28 02:20:19;;;;;;;;;;;;;;;7.27;96.95;100763.00;5072378;28;19931;-68
2022/12/28 02:23:11;;;;;;;;;;;;;;;7.31;95.62;100761.22;5085866;28;20397;-69
2022/12/28 02:25:58;;;;;;;;;;;;;;;7.32;95.88;100758.56;5092074;28;19927;-68
2022/12/28 02:28:38;;;;;;;;;;;;;;;7.32;95.55;100747.97;5091331;28;19944;-68
2022/12/28 02:31:07;;;;;;;;;;;;;;;7.34;95.66;100743.56;5092425;28;19944;-68
2022/12/28 02:33:40;;;;;;;;;;;;;;;7.37;94.77;100746.19;5077109;28;19940;-68
2022/12/28 02:36:16;;;;;;;;;;;;;;;7.37;95.44;100745.28;5073184;28;19945;-68
2022/12/28 02:38:50;;;;;;;;;;;;;;;7.35;94.92;100747.94;5087148;28;20541;-69
2022/12/28 02:41:18;;;;;;;;;;;;;;;7.42;94.65;100744.38;5091810;28;19964;-69
2022/12/28 02:43:44;;;;;;;;;;;;;;;7.46;94.59;100740.78;5082161;28;20424;-69
2022/12/28 02:51:57;;;;;;;;;;;;;;;7.51;92.68;100723.09;5082334;28;19999;-69
2022/12/28 02:57:31;;;;;;;;;;;;;;;7.53;92.30;100713.38;5090850;28;19933;-71
2022/12/28 03:00:03;;;;;;;;;;;;;;;7.58;92.09;100715.97;5093405;28;19944;-69
2022/12/28 03:02:43;;;;;;;;;;;;;;;7.60;91.66;100711.56;5092227;28;19956;-69
2022/12/28 03:08:44;;;;;;;;;;;;;;;7.65;91.20;100701.81;5010160;28;19942;-69
2022/12/28 03:11:13;;;;;;;;;;;;;;;7.68;90.96;100704.41;5087998;28;20334;-69
2022/12/28 03:13:46;;;;;;;;;;;;;;;7.67;90.44;100702.66;5092563;28;19959;-69
2022/12/28 03:16:26;;;;;;;;;;;;;;;7.68;90.19;100705.31;5099605;28;19989;-66
2022/12/28 03:32:47;;;;;;;;;;;;;;;7.81;89.70;100676.91;5090259;28;19943;-68
2022/12/28 03:35:12;;;;;;;;;;;;;;;7.81;88.72;100674.25;5092180;28;20320;-67
2022/12/28 03:37:46;;;;;;;;;;;;;;;7.78;88.91;100680.47;5091827;28;19938;-68
2022/12/28 03:40:18;;;;;;;;;;;;;;;7.81;88.72;100669.84;5083667;28;20430;-68
2022/12/28 03:45:33;;;;;;;;;;;;;;;7.78;87.86;100672.53;5094552;28;19939;-68
2022/12/28 03:47:59;;;;;;;;;;;;;;;7.78;88.52;100666.34;5098068;28;20045;-67
2022/12/28 03:50:25;;;;;;;;;;;;;;;7.75;89.07;100666.41;5092715;28;20492;-68
2022/12/28 03:52:50;;;;;;;;;;;;;;;7.69;89.51;100655.88;5074989;28;20026;-68
2022/12/28 03:55:17;;;;;;;;;;;;;;;7.68;88.79;100652.34;5074963;28;20412;-68
2022/12/28 03:57:42;;;;;;;;;;;;;;;7.66;89.07;100658.56;5074634;28;19929;-68
2022/12/28 04:00:09;;;;;;;;;;;;;;;7.70;88.64;100655.88;5077250;28;19942;-65
2022/12/28 04:02:35;;;;;;;;;;;;;;;7.73;87.85;100645.22;5082011;28;20049;-67
2022/12/28 04:05:00;;;;;;;;;;;;;;;7.67;88.58;100647.97;5091569;28;19987;-69
2022/12/28 04:07:27;;;;;;;;;;;;;;;7.66;88.09;100656.78;5075722;28;20004;-71
2022/12/28 04:09:52;;;;;;;;;;;;;;;7.65;87.93;100646.19;5081976;28;19938;-72
2022/12/28 04:12:17;;;;;;;;;;;;;;;7.62;87.73;100647.13;5078353;28;19993;-72
2022/12/28 04:14:42;;;;;;;;;;;;;;;7.66;88.03;100647.97;5076369;28;19952;-71
2022/12/28 04:17:08;;;;;;;;;;;;;;;7.71;88.64;100652.31;5084161;28;19943;-68
2022/12/28 04:19:33;;;;;;;;;;;;;;;7.79;88.50;100658.38;5115128;28;20006;-70
2022/12/28 04:21:58;;;;;;;;;;;;;;;7.81;88.37;100646.03;5094538;28;20636;-70
2022/12/28 04:24:23;;;;;;;;;;;;;;;7.89;87.94;100656.53;5091410;28;19935;-69
2022/12/28 04:26:49;;;;;;;;;;;;;;;7.93;87.07;100653.84;5098133;28;19976;-68
2022/12/28 04:29:14;;;;;;;;;;;;;;;8.00;86.26;100642.28;5093761;28;19930;-70
2022/12/28 04:31:39;;;;;;;;;;;;;;;8.06;85.67;100638.66;5087611;28;19935;-69
2022/12/28 04:34:05;;;;;;;;;;;;;;;8.11;85.28;100636.81;5086733;28;19954;-69
2022/12/28 04:36:31;;;;;;;;;;;;;;;8.11;84.80;100641.25;5076791;28;20018;-69
2022/12/28 04:38:57;;;;;;;;;;;;;;;8.15;84.83;100637.66;5094636;28;20003;-68
2022/12/28 04:41:22;;;;;;;;;;;;;;;8.15;85.48;100632.38;5100909;28;19938;-67
2022/12/28 04:43:47;;;;;;;;;;;;;;;8.09;85.63;100638.59;5093205;28;19982;-67
2022/12/28 04:46:14;;;;;;;;;;;;;;;8.13;84.86;100628.84;5093444;28;19940;-67
2022/12/28 04:48:39;;;;;;;;;;;;;;;8.12;84.16;100627.13;5082897;28;19935;-69
2022/12/28 04:51:06;;;;;;;;;;;;;;;8.09;84.63;100627.16;5085641;28;19943;-68
2022/12/28 04:53:35;;;;;;;;;;;;;;;8.08;85.09;100623.63;5104051;28;20029;-68
2022/12/28 04:56:02;;;;;;;;;;;;;;;8.09;85.20;100622.72;5106673;28;19979;-70
2022/12/28 04:58:27;;;;;;;;;;;;;;;8.10;85.24;100628.91;5110561;28;20018;-69
2022/12/28 05:00:53;;;;;;;;;;;;;;;8.14;85.70;100617.38;5076331;28;20019;-69
2022/12/28 05:03:18;;;;;;;;;;;;;;;8.10;85.50;100623.59;5078699;28;19980;-69
2022/12/28 05:05:43;;;;;;;;;;;;;;;8.02;84.43;100619.25;5082565;28;19980;-69
2022/12/28 05:08:08;;;;;;;;;;;;;;;8.10;84.56;100613.00;5073603;28;19976;-69
2022/12/28 05:10:34;;;;;;;;;;;;;;;8.09;84.93;100622.72;5086147;28;19973;-68
2022/12/28 05:12:59;;;;;;;;;;;;;;;8.13;85.64;100623.56;5093865;28;20314;-69
2022/12/28 05:15:25;;;;;;;;;;;;;;;8.17;85.23;100614.69;5090188;28;20008;-69
2022/12/28 05:17:50;;;;;;;;;;;;;;;8.17;85.59;100617.34;5093800;28;19996;-68
2022/12/28 05:20:16;;;;;;;;;;;;;;;8.17;84.35;100620.84;5094086;28;19926;-69
2022/12/28 05:22:42;;;;;;;;;;;;;;;8.15;84.99;100611.16;5090890;28;20369;-67
2022/12/28 05:25:07;;;;;;;;;;;;;;;8.16;84.61;100612.91;5076034;28;19937;-69
2022/12/28 05:27:32;;;;;;;;;;;;;;;8.16;85.08;100610.25;5082582;28;19938;-69
2022/12/28 05:29:58;;;;;;;;;;;;;;;8.13;85.15;100605.00;5079379;28;19937;-68
2022/12/28 05:32:23;;;;;;;;;;;;;;;8.11;84.82;100598.84;5072239;28;19931;-69
2022/12/28 05:34:48;;;;;;;;;;;;;;;8.09;84.98;100595.38;5074445;28;19948;-69
2022/12/28 05:37:13;;;;;;;;;;;;;;;8.12;85.06;100592.66;5095318;28;20397;-68
2022/12/28 05:39:39;;;;;;;;;;;;;;;8.15;85.42;100595.28;5095888;28;19931;-69
2022/12/28 05:42:04;;;;;;;;;;;;;;;8.13;84.45;100589.09;5113501;28;19979;-68
2022/12/28 05:44:29;;;;;;;;;;;;;;;8.22;84.16;100592.50;5100099;28;19946;-69
2022/12/28 05:46:55;;;;;;;;;;;;;;;8.25;84.10;100591.63;5093145;28;19984;-69
2022/12/28 05:49:20;;;;;;;;;;;;;;;8.28;83.71;100591.59;5093249;28;19963;-69
2022/12/28 05:51:47;;;;;;;;;;;;;;;8.32;82.38;100582.72;5093251;28;20432;-68
2022/12/28 05:54:12;;;;;;;;;;;;;;;8.37;83.03;100586.16;5081711;28;19959;-68
2022/12/28 05:56:37;;;;;;;;;;;;;;;8.42;82.39;100584.31;5072807;28;20742;-68
2022/12/28 05:59:04;;;;;;;;;;;;;;;8.40;82.65;100580.81;5071975;28;19969;-68
2022/12/28 06:01:31;;;;;;;;;;;;;;;8.42;82.85;100579.88;5074347;28;20469;-68
2022/12/28 06:03:58;;;;;;;;;;;;;;;8.53;81.73;100587.69;5082151;28;19950;-68
2022/12/28 06:06:24;;;;;;;;;;;;;;;8.52;81.18;100583.25;5089480;28;20362;-68
2022/12/28 06:08:49;;;;;;;;;;;;;;;8.56;80.74;100577.03;5073165;28;19936;-68
2022/12/28 06:11:16;;;;;;;;;;;;;;;8.61;81.05;100577.84;5090556;28;19939;-68
2022/12/28 06:13:42;;;;;;;;;;;;;;;8.57;81.15;100582.31;5095643;28;19953;-69
2022/12/28 06:16:09;;;;;;;;;;;;;;;8.57;80.82;100578.75;5089037;28;20036;-68
2022/12/28 06:18:34;;;;;;;;;;;;;;;8.61;80.92;100580.47;5073321;28;19941;-68
2022/12/28 06:21:01;;;;;;;;;;;;;;;8.63;80.85;100579.53;5072987;28;19927;-68
2022/12/28 06:23:26;;;;;;;;;;;;;;;8.58;81.67;100569.94;5072661;28;19936;-68
2022/12/28 06:25:52;;;;;;;;;;;;;;;8.56;80.86;100566.41;5074912;28;19943;-68
2022/12/28 06:28:17;;;;;;;;;;;;;;;8.64;81.06;100559.22;5072787;28;19935;-68
2022/12/28 06:30:42;;;;;;;;;;;;;;;8.49;80.60;100533.81;5074848;28;19931;-68
2022/12/28 06:33:08;;;;;;;;;;;;;;;8.69;80.61;100557.38;5072468;28;20422;-67
2022/12/28 06:35:33;;;;;;;;;;;;;;;8.68;81.02;100556.47;5072405;28;20338;-68
2022/12/28 06:37:58;;;;;;;;;;;;;;;8.69;80.87;100546.75;5081659;28;20038;-68
2022/12/28 06:40:23;;;;;;;;;;;;;;;8.76;80.12;100556.38;5092599;28;19938;-68
2022/12/28 06:42:49;;;;;;;;;;;;;;;8.76;80.29;100551.94;5090515;28;19952;-68
2022/12/28 06:45:14;;;;;;;;;;;;;;;8.75;79.88;100539.56;5074107;28;20413;-68
2022/12/28 06:47:39;;;;;;;;;;;;;;;8.78;80.20;100551.94;5072379;28;19954;-68
2022/12/28 06:50:05;;;;;;;;;;;;;;;8.77;80.72;100544.84;5071820;28;19963;-68
2022/12/28 06:52:31;;;;;;;;;;;;;;;8.81;80.25;100546.56;5074640;28;20298;-68
2022/12/28 06:54:56;;;;;;;;;;;;;;;8.86;79.73;100539.41;5073595;28;20022;-68
2022/12/28 06:57:21;;;;;;;;;;;;;;;8.94;79.36;100537.50;5093573;28;19933;-68
2022/12/28 06:59:47;;;;;;;;;;;;;;;8.96;79.09;100533.03;5091098;28;20013;-68
2022/12/28 07:02:12;;;;;;;;;;;;;;;9.00;79.25;100527.63;5084062;28;20394;-68
2022/12/28 07:04:37;;;;;;;;;;;;;;;9.04;79.12;100528.47;5087453;28;19953;-68
2022/12/28 07:07:03;;;;;;;;;;;;;;;9.03;78.84;100530.22;5086420;28;19929;-68
2022/12/28 07:09:28;;;;;;;;;;;;;;;9.05;79.06;100527.53;5075513;28;19965;-68
2022/12/28 07:11:53;;;;;;;;;;;;;;;9.03;79.38;100530.22;5092240;28;20438;-68
2022/12/28 07:14:18;;;;;;;;;;;;;;;8.98;79.07;100529.44;5091364;28;19948;-68
2022/12/28 07:16:44;;;;;;;;;;;;;;;8.97;79.37;100530.34;5082567;28;19994;-68
2022/12/28 07:19:09;;;;;;;;;;;;;;;8.91;80.71;100522.47;5074561;28;19931;-68
2022/12/28 07:21:35;;;;;;;;;;;;;;;8.92;80.51;100521.59;5092077;28;19929;-68
2022/12/28 07:24:01;;;;;;;;;;;;;;;8.93;80.47;100525.09;5092960;28;19976;-67
2022/12/28 07:26:28;;;;;;;;;;;;;;;8.93;80.57;100519.81;5079176;28;19935;-69
2022/12/28 07:28:54;;;;;;;;;;;;;;;8.93;80.72;100517.16;5071344;28;19951;-68
2022/12/28 07:31:21;;;;;;;;;;;;;;;8.87;81.10;100509.31;5073569;28;19934;-69
2022/12/28 07:33:47;;;;;;;;;;;;;;;8.86;81.16;100507.56;5091335;28;20355;-69
2022/12/28 07:36:13;;;;;;;;;;;;;;;8.87;81.22;100509.31;5094377;28;19941;-68
2022/12/28 07:38:39;;;;;;;;;;;;;;;8.89;81.93;100508.41;5079814;28;19934;-68
2022/12/28 07:41:06;;;;;;;;;;;;;;;8.92;81.22;100507.44;5074504;28;19942;-68
2022/12/28 07:43:32;;;;;;;;;;;;;;;8.98;80.75;100509.97;5060903;28;19930;-68
2022/12/28 07:45:58;;;;;;;;;;;;;;;9.02;80.89;100514.34;5053657;28;19950;-69
2022/12/28 07:48:23;;;;;;;;;;;;;;;8.99;80.45;100509.09;5073319;28;19962;-69
2022/12/28 07:50:49;;;;;;;;;;;;;;;9.02;81.24;100514.34;5072086;28;20435;-68
2022/12/28 07:53:14;;;;;;;;;;;;;;;9.13;80.60;100502.63;5072496;28;19938;-67
2022/12/28 07:55:40;;;;;;;;;;;;;;;9.17;80.53;100498.13;5054199;28;19956;-68
2022/12/28 07:58:05;;;;;;;;;;;;;;;9.18;80.74;100502.53;5073693;28;20320;-68
2022/12/28 08:00:30;;;;;;;;;;;;;;;9.21;80.30;100505.13;5084954;28;19939;-68
2022/12/28 08:02:56;;;;;;;;;;;;;;;9.23;80.01;100496.25;5091939;28;20375;-68
2022/12/28 08:05:21;;;;;;;;;;;;;;;9.24;79.69;100497.13;5084398;28;19950;-68
2022/12/28 08:07:46;;;;;;;;;;;;;;;9.28;80.61;100488.19;5072644;28;19936;-69
2022/12/28 08:10:11;;;;;;;;;;;;;;;9.31;79.60;100493.41;5083722;28;19971;-69
2022/12/28 08:12:37;;;;;;;;;;;;;;;9.36;78.78;100494.19;5089323;28;20333;-69
2022/12/28 08:15:02;;;;;;;;;;;;;;;9.42;78.75;100494.09;5075101;28;20034;-68
2022/12/28 08:17:27;;;;;;;;;;;;;;;9.50;78.25;100489.50;5083020;28;19936;-68
2022/12/28 08:19:54;;;;;;;;;;;;;;;9.58;77.25;100495.53;5072008;28;20002;-70
2022/12/28 08:22:19;;;;;;;;;;;;;;;9.64;77.78;100492.72;5071556;28;19939;-69
2022/12/28 08:24:44;;;;;;;;;;;;;;;9.71;77.11;100497.00;5081706;28;19930;-69
2022/12/28 08:27:10;;;;;;;;;;;;;;;9.82;77.07;100489.69;5079233;28;19943;-69
2022/12/28 08:29:35;;;;;;;;;;;;;;;9.85;76.07;100494.06;5072770;28;20375;-69
2022/12/28 08:32:00;;;;;;;;;;;;;;;9.83;76.71;100494.09;5077901;28;19931;-69
2022/12/28 08:34:25;;;;;;;;;;;;;;;10.00;75.89;100480.44;5075264;28;20000;-69
2022/12/28 08:36:54;;;;;;;;;;;;;;;10.03;75.54;100483.03;5079589;28;19936;-69
2022/12/28 08:39:20;;;;;;;;;;;;;;;10.08;74.27;100482.03;5078965;28;19982;-69
2022/12/28 08:41:45;;;;;;;;;;;;;;;10.13;73.96;100476.63;5084703;28;19980;-69
2022/12/28 08:44:10;;;;;;;;;;;;;;;10.13;74.72;100473.97;5076986;28;20022;-69
2022/12/28 08:46:36;;;;;;;;;;;;;;;10.20;74.17;100476.44;5076544;28;19936;-70
2022/12/28 08:49:01;;;;;;;;;;;;;;;10.29;73.62;100470.91;5074039;28;20396;-69
2022/12/28 08:51:29;;;;;;;;;;;;;;;10.41;72.25;100473.25;5081255;28;19937;-69
2022/12/28 08:53:54;;;;;;;;;;;;;;;10.58;72.16;100467.50;5075117;28;19954;-67
2022/12/28 08:56:24;;;;;;;;;;;;;;;11.00;70.89;100460.19;5082567;28;19938;-69
2022/12/28 08:58:49;;;;;;;;;;;;;;;11.42;67.96;100470.50;5074217;28;19926;-68
2022/12/28 09:01:18;;;;;;;;;;;;;;;11.65;65.85;100451.22;5076085;28;19943;-68
2022/12/28 09:03:45;;;;;;;;;;;;;;;12.13;64.94;100465.69;5063681;28;19929;-68
2022/12/28 09:06:12;;;;;;;;;;;;;;;12.48;62.38;100449.44;5093318;28;19936;-68
2022/12/28 09:08:38;;;;;;;;;;;;;;;12.83;61.44;100465.09;5091580;28;20311;-68
2022/12/28 09:11:05;;;;;;;;;;;;;;;13.00;59.96;100460.06;5093753;28;19929;-68
2022/12/28 09:13:31;;;;;;;;;;;;;;;13.19;59.56;100453.13;5084437;28;19940;-69
2022/12/28 09:15:58;;;;;;;;;;;;;;;13.43;58.35;100451.38;5090459;28;19933;-69
2022/12/28 09:18:23;;;;;;;;;;;;;;;12.94;58.82;100444.25;5092062;28;19929;-68
2022/12/28 09:20:48;;;;;;;;;;;;;;;12.71;60.77;100452.19;5092152;28;19939;-67
2022/12/28 09:23:13;;;;;;;;;;;;;;;12.88;60.32;100446.28;5093895;28;19971;-69
2022/12/28 09:25:39;;;;;;;;;;;;;;;13.23;60.17;100447.72;5081881;28;20303;-68
2022/12/28 09:28:04;;;;;;;;;;;;;;;13.34;56.86;100450.84;5092802;28;20028;-69
2022/12/28 09:30:29;;;;;;;;;;;;;;;13.00;59.47;100445.81;5089490;28;19966;-69
2022/12/28 09:33:57;;;;;;;;;;;;;;;13.16;58.64;100447.91;5089721;28;20766;-68
2022/12/28 09:35:40;;;;;;;;;;;;;;;12.77;59.32;100464.44;5091689;28;20064;-68
2022/12/28 09:38:05;;;;;;;;;;;;;;;12.48;60.43;100454.75;5091723;28;20016;-68
2022/12/28 09:40:32;;;;;;;;;;;;;;;12.35;61.58;100457.88;5082402;28;19942;-68
2022/12/28 09:42:57;;;;;;;;;;;;;;;12.28;62.47;100449.22;5092650;28;20265;-69
2022/12/28 09:45:25;;;;;;;;;;;;;;;12.18;63.90;100452.22;5090363;28;19950;-68
2022/12/28 09:47:54;;;;;;;;;;;;;;;11.87;64.94;100457.66;5074812;28;20648;-69
2022/12/28 09:50:24;;;;;;;;;;;;;;;11.82;66.01;100459.56;5072713;28;20457;-68
2022/12/28 09:53:09;;;;;;;;;;;;;;;11.66;66.29;100452.97;5082857;28;20437;-68
2022/12/28 09:55:38;;;;;;;;;;;;;;;11.56;66.41;100459.47;5092342;28;20353;-68
2022/12/28 09:58:05;;;;;;;;;;;;;;;11.52;67.13;100444.47;5086995;28;19936;-68
2022/12/28 10:00:36;;;;;;;;;;;;;;;11.44;66.47;100452.69;5072819;28;19927;-68
2022/12/28 10:03:03;;;;;;;;;;;;;;;11.46;68.01;100460.63;5075734;28;19925;-68
2022/12/28 10:05:28;;;;;;;;;;;;;;;11.42;67.53;100453.63;5080555;28;19942;-69
2022/12/28 10:07:56;;;;;;;;;;;;;;;11.38;68.02;100457.31;5089736;28;20438;-68
2022/12/28 10:10:22;;;;;;;;;;;;;;;11.39;68.86;100459.06;5083937;28;20458;-67
2022/12/28 10:12:48;;;;;;;;;;;;;;;11.42;68.67;100449.19;5081923;28;19940;-68
2022/12/28 10:15:14;;;;;;;;;;;;;;;11.42;69.15;100453.63;5072555;28;19949;-68
2022/12/28 10:17:40;;;;;;;;;;;;;;;11.38;69.14;100441.34;5074389;28;19983;-68
2022/12/28 10:20:08;;;;;;;;;;;;;;;11.34;68.63;100442.34;5072859;28;19936;-68
2022/12/28 10:22:38;;;;;;;;;;;;;;;11.27;69.57;100438.97;5072133;28;19928;-68
2022/12/28 10:25:11;;;;;;;;;;;;;;;11.37;69.70;100445.78;5074173;28;20024;-68
2022/12/28 10:27:36;;;;;;;;;;;;;;;11.34;68.93;100429.03;5072268;28;20380;-68
2022/12/28 10:30:06;;;;;;;;;;;;;;;11.43;70.10;100424.28;5074257;28;19981;-68
2022/12/28 10:32:48;;;;;;;;;;;;;;;11.54;69.30;100418.66;5072119;28;19982;-69
2022/12/28 10:35:21;;;;;;;;;;;;;;;11.54;69.66;100410.66;5054058;28;19949;-68
2022/12/28 10:37:46;;;;;;;;;;;;;;;11.62;69.33;100413.97;5072068;28;20376;-68
2022/12/28 10:40:41;;;;;;;;;;;;;;;11.64;68.64;100407.72;5084299;28;19957;-68
2022/12/28 10:43:17;;;;;;;;;;;;;;;11.83;67.70;100402.69;5087103;28;19967;-68
2022/12/28 10:45:46;;;;;;;;;;;;;;;11.88;67.26;100398.94;5080755;28;20013;-68
2022/12/28 10:48:18;;;;;;;;;;;;;;;12.08;66.89;100395.66;5079970;28;19939;-69
2022/12/28 10:50:54;;;;;;;;;;;;;;;12.28;66.76;100392.31;5073941;28;19962;-69
2022/12/28 10:53:27;;;;;;;;;;;;;;;12.79;65.29;100388.72;5071378;28;19938;-69
2022/12/28 10:56:00;;;;;;;;;;;;;;;13.06;62.12;100387.75;5071383;28;19956;-69
2022/12/28 10:58:26;;;;;;;;;;;;;;;13.48;60.08;100384.38;5056006;28;19943;-69
2022/12/28 11:00:53;;;;;;;;;;;;;;;14.48;58.07;100372.25;5073687;28;19931;-69
2022/12/28 11:03:22;;;;;;;;;;;;;;;15.20;53.92;100376.19;5076334;28;20413;-69
2022/12/28 11:05:47;;;;;;;;;;;;;;;15.16;54.21;100369.19;5073238;28;19956;-69
2022/12/28 11:08:13;;;;;;;;;;;;;;;15.16;54.90;100371.88;5088087;28;19936;-69
2022/12/28 11:10:39;;;;;;;;;;;;;;;15.43;53.73;100365.28;5091549;28;19940;-69
2022/12/28 11:13:07;;;;;;;;;;;;;;;15.67;53.05;100353.41;5085815;28;19927;-69
2022/12/28 11:15:33;;;;;;;;;;;;;;;15.58;52.04;100364.53;5071007;28;20002;-69
2022/12/28 11:18:00;;;;;;;;;;;;;;;14.97;54.39;100354.91;5068711;28;19967;-68
2022/12/28 11:20:36;;;;;;;;;;;;;;;14.94;54.71;100348.81;5072679;28;19984;-68
2022/12/28 11:23:05;;;;;;;;;;;;;;;14.97;56.07;100349.56;5090000;28;19965;-69
2022/12/28 11:25:33;;;;;;;;;;;;;;;14.82;55.27;100352.91;5081247;28;20002;-69
2022/12/28 11:27:59;;;;;;;;;;;;;;;14.65;55.34;100336.72;5070872;28;19939;-69
2022/12/28 11:30:24;;;;;;;;;;;;;;;14.35;56.88;100349.63;5071472;28;19930;-69
2022/12/28 11:32:52;;;;;;;;;;;;;;;14.11;58.12;100349.75;5071222;28;20428;-68
2022/12/28 11:35:19;;;;;;;;;;;;;;;13.66;58.82;100346.25;5076674;28;19955;-69
2022/12/28 11:37:48;;;;;;;;;;;;;;;13.40;60.35;100349.09;5091296;28;19995;-68
2022/12/28 11:40:33;;;;;;;;;;;;;;;13.29;61.21;100344.16;5086056;28;19953;-68
2022/12/28 11:42:58;;;;;;;;;;;;;;;13.42;61.18;100336.53;5071066;28;19989;-69
2022/12/28 11:45:43;;;;;;;;;;;;;;;13.41;62.13;100332.13;5071190;28;20443;-69
2022/12/28 11:48:27;;;;;;;;;;;;;;;13.27;61.94;100327.31;5071262;28;19928;-68
2022/12/28 11:50:52;;;;;;;;;;;;;;;13.07;62.03;100320.06;5088123;28;19996;-68
2022/12/28 11:53:20;;;;;;;;;;;;;;;13.11;61.75;100324.34;5091270;28;19983;-68
2022/12/28 11:56:15;;;;;;;;;;;;;;;13.22;60.81;100318.63;5079820;28;19984;-68
2022/12/28 11:58:40;;;;;;;;;;;;;;;13.58;60.70;100313.63;5055960;28;19986;-68
2022/12/28 12:01:09;;;;;;;;;;;;;;;13.76;60.31;100302.19;5070855;28;20644;-68
2022/12/28 12:03:57;;;;;;;;;;;;;;;14.42;58.36;100281.50;5075416;28;20357;-68
2022/12/28 12:06:41;;;;;;;;;;;;;;;14.47;57.64;100284.84;5078130;28;20581;-68
2022/12/28 12:09:28;;;;;;;;;;;;;;;14.47;57.94;100275.94;5084320;28;20458;-68
2022/12/28 12:12:02;;;;;;;;;;;;;;;14.24;58.58;100281.41;5094702;28;19934;-68
2022/12/28 12:14:44;;;;;;;;;;;;;;;13.94;58.80;100275.56;5086301;28;19949;-68
2022/12/28 12:17:15;;;;;;;;;;;;;;;13.76;60.84;100267.44;5074458;28;19937;-68
2022/12/28 12:19:45;;;;;;;;;;;;;;;13.49;61.35;100260.56;5077033;28;20389;-68
2022/12/28 12:22:31;;;;;;;;;;;;;;;13.48;61.76;100256.13;5074502;28;20265;-68
2022/12/28 12:25:01;;;;;;;;;;;;;;;13.45;61.51;100256.25;5090146;28;20400;-68
2022/12/28 12:27:35;;;;;;;;;;;;;;;13.40;62.46;100247.53;5077020;28;20457;-68
2022/12/28 12:30:20;;;;;;;;;;;;;;;13.45;63.12;100246.44;5074697;28;20290;-68
2022/12/28 12:32:53;;;;;;;;;;;;;;;13.36;61.77;100251.28;5074244;28;20017;-68
2022/12/28 12:35:19;;;;;;;;;;;;;;;13.21;63.21;100247.44;5058747;28;19950;-68
2022/12/28 12:37:48;;;;;;;;;;;;;;;13.12;63.31;100237.97;5074170;28;19954;-68
2022/12/28 12:40:13;;;;;;;;;;;;;;;13.04;64.96;100237.41;5083670;28;19967;-68
2022/12/28 12:42:56;;;;;;;;;;;;;;;13.02;64.66;100233.94;5107329;28;19971;-67
2022/12/28 12:45:40;;;;;;;;;;;;;;;12.98;65.33;100229.59;5114691;28;19933;-68
2022/12/28 12:48:21;;;;;;;;;;;;;;;12.96;65.62;100230.59;5089296;28;19929;-68
2022/12/28 12:50:53;;;;;;;;;;;;;;;12.85;65.85;100224.81;5093147;28;19957;-68
2022/12/28 12:53:24;;;;;;;;;;;;;;;12.86;65.84;100219.41;5093288;28;19929;-68
2022/12/28 12:55:49;;;;;;;;;;;;;;;12.84;65.77;100213.25;5090380;28;20615;-68
2022/12/28 12:58:32;;;;;;;;;;;;;;;12.87;65.56;100210.44;5073718;28;19930;-68
2022/12/28 13:01:16;;;;;;;;;;;;;;;12.84;66.27;100207.91;5073464;28;19930;-67
2022/12/28 13:03:41;;;;;;;;;;;;;;;12.89;65.83;100191.69;5083803;28;20261;-68
2022/12/28 13:06:07;;;;;;;;;;;;;;;12.82;65.60;100193.75;5094124;28;19949;-68
2022/12/28 13:08:39;;;;;;;;;;;;;;;12.77;65.82;100190.38;5093936;28;20288;-68
2022/12/28 13:11:07;;;;;;;;;;;;;;;12.85;66.07;100169.59;5078887;28;20016;-68
2022/12/28 13:13:34;;;;;;;;;;;;;;;12.87;65.75;100167.75;5094065;28;19939;-68